Time;durP1;ratioP1;P1;durP2;ratioP2;P2;SDS_P1;SDS_P2;PMS_P1;PMS_P2;Temp;Humidity;BMP_temperature;BMP_pressure;BME280_temperature;BME280_humidity;BME280_pressure;Samples;Min_cycle;Max_cycle;Signal;HPM_P1;HPM_P2
2021/05/06 00:34:19;;;;;;;8.68;5.95;;;5.60;88.30;;;;;;5027252;28;20109;-83
2021/05/06 00:36:46;;;;;;;12.02;6.18;;;5.50;88.30;;;;;;5013210;28;20037;-83
2021/05/06 00:39:16;;;;;;;10.73;6.32;;;5.50;88.30;;;;;;5014484;28;20116;-83
2021/05/06 01:05:51;;;;;;;13.85;7.90;;;5.10;89.50;;;;;;5030919;28;20048;-83
2021/05/06 01:08:23;;;;;;;11.82;7.70;;;5.10;89.60;;;;;;5030168;28;20538;-83
2021/05/06 01:13:22;;;;;;;14.57;8.57;;;5.10;89.70;;;;;;5031961;28;20025;-83
2021/05/06 01:15:47;;;;;;;13.30;8.40;;;5.10;89.80;;;;;;5030228;28;20477;-84
2021/05/06 01:18:13;;;;;;;14.23;9.90;;;5.10;90.00;;;;;;5013603;28;20060;-83
2021/05/06 01:20:45;;;;;;;13.43;8.38;;;5.10;90.00;;;;;;5030107;28;20025;-83
2021/05/06 01:23:10;;;;;;;12.82;8.02;;;5.10;90.00;;;;;;5030106;28;20022;-83
2021/05/06 01:25:36;;;;;;;12.65;8.82;;;5.10;89.90;;;;;;5013470;28;20047;-83
2021/05/06 01:28:07;;;;;;;10.40;7.20;;;5.10;90.00;;;;;;5030059;28;20042;-83
2021/05/06 01:33:08;;;;;;;9.88;6.95;;;5.00;90.10;;;;;;5030363;28;20113;-83
2021/05/06 01:35:40;;;;;;;11.15;6.63;;;5.00;90.00;;;;;;5031240;28;20029;-84
2021/05/06 01:46:28;;;;;;;10.05;5.43;;;4.80;90.10;;;;;;5030748;28;20035;-83
2021/05/06 02:00:06;;;;;;;9.32;5.05;;;4.70;90.30;;;;;;5029457;28;20036;-83
2021/05/06 02:02:32;;;;;;;10.13;5.03;;;4.70;90.20;;;;;;5029250;28;20030;-83
2021/05/06 02:04:57;;;;;;;8.07;4.63;;;4.70;90.20;;;;;;5012714;28;20400;-84
2021/05/06 02:07:23;;;;;;;10.45;5.40;;;4.70;90.20;;;;;;5012779;28;20174;-83
2021/05/06 02:09:50;;;;;;;11.82;4.82;;;4.70;90.30;;;;;;5029169;28;20084;-83
2021/05/06 02:12:17;;;;;;;8.25;4.68;;;4.60;90.20;;;;;;5030384;28;20025;-83
2021/05/06 02:14:48;;;;;;;7.57;4.45;;;4.60;90.20;;;;;;5012821;28;20480;-83
2021/05/06 02:17:14;;;;;;;9.95;4.35;;;4.60;90.10;;;;;;5029140;28;20144;-83
2021/05/06 02:19:43;;;;;;;7.78;4.88;;;4.50;90.00;;;;;;5012492;28;20484;-83
2021/05/06 02:22:09;;;;;;;6.50;4.07;;;4.50;89.90;;;;;;5029279;28;20052;-82
2021/05/06 02:24:36;;;;;;;7.25;4.65;;;4.50;89.70;;;;;;5012433;28;20038;-83
2021/05/06 02:27:02;;;;;;;5.40;4.22;;;4.40;89.50;;;;;;5012365;28;20069;-83
2021/05/06 02:29:28;;;;;;;7.70;4.75;;;4.30;89.50;;;;;;5028837;28;20064;-83
2021/05/06 02:31:53;;;;;;;7.18;4.55;;;4.30;89.60;;;;;;5012367;28;20484;-83
2021/05/06 02:34:19;;;;;;;8.63;4.32;;;4.20;89.60;;;;;;5028868;28;20026;-84
2021/05/06 02:36:45;;;;;;;7.70;4.35;;;4.20;89.70;;;;;;5028652;28;20435;-84
2021/05/06 02:39:11;;;;;;;7.70;5.57;;;4.20;89.90;;;;;;5012339;28;20131;-83
2021/05/06 02:41:36;;;;;;;5.97;4.22;;;4.10;89.80;;;;;;5028683;28;20035;-83
2021/05/06 02:44:02;;;;;;;8.07;4.38;;;4.10;89.90;;;;;;5028772;28;20029;-83
2021/05/06 02:46:28;;;;;;;8.70;4.82;;;4.10;90.00;;;;;;5045017;28;20037;-83
2021/05/06 02:48:54;;;;;;;5.88;4.13;;;4.00;89.90;;;;;;5011898;28;20038;-83
2021/05/06 02:51:24;;;;;;;6.10;4.03;;;4.00;89.90;;;;;;5028566;28;20025;-83
2021/05/06 02:53:53;;;;;;;6.45;4.30;;;4.00;90.00;;;;;;5012590;28;20025;-83
2021/05/06 02:56:35;;;;;;;9.27;5.05;;;4.00;90.00;;;;;;5011992;28;20053;-83
2021/05/06 03:04:11;;;;;;;7.63;4.63;;;3.90;90.00;;;;;;5029783;28;20079;-83
2021/05/06 03:07:12;;;;;;;8.40;3.97;;;3.90;90.00;;;;;;5011646;28;20037;-83
2021/05/06 03:15:07;;;;;;;8.90;4.75;;;3.80;90.20;;;;;;5028558;28;20061;-83
2021/05/06 03:23:01;;;;;;;8.07;4.75;;;3.80;90.30;;;;;;5028436;28;20044;-83
2021/05/06 03:25:29;;;;;;;6.68;4.10;;;3.80;90.30;;;;;;5027746;28;20038;-83
2021/05/06 03:34:37;;;;;;;8.02;4.50;;;3.70;90.40;;;;;;5028814;28;20030;-84
2021/05/06 04:18:30;;;;;;;10.65;4.00;;;3.50;90.50;;;;;;5028612;28;20032;-83
2021/05/06 04:37:35;;;;;;;7.22;3.85;;;3.30;90.60;;;;;;5027141;28;20487;-83
2021/05/06 05:05:00;;;;;;;8.52;4.00;;;3.40;90.80;;;;;;5026648;28;20072;-83
2021/05/06 05:12:00;;;;;;;15.38;4.05;;;3.40;90.80;;;;;;5026517;28;20077;-83
2021/05/06 05:24:58;;;;;;;14.57;4.45;;;3.60;90.90;;;;;;5031148;28;20055;-83
2021/05/06 05:27:23;;;;;;;6.18;3.85;;;3.60;90.80;;;;;;5029833;28;20029;-83
2021/05/06 05:29:50;;;;;;;8.65;3.90;;;3.60;90.70;;;;;;5029642;28;20461;-82
2021/05/06 05:32:17;;;;;;;9.27;4.45;;;3.70;91.00;;;;;;5029698;28;20017;-84
2021/05/06 05:35:31;;;;;;;11.50;4.38;;;3.70;90.80;;;;;;5013238;28;20029;-83
2021/05/06 05:37:40;;;;;;;9.00;3.42;;;3.70;90.80;;;;;;5026763;28;20511;-84
2021/05/06 05:41:07;;;;;;;7.40;3.97;;;3.70;90.70;;;;;;5014240;28;20091;-83
2021/05/06 05:56:08;;;;;;;13.75;3.65;;;3.80;90.60;;;;;;5029182;28;20045;-83
2021/05/06 05:58:34;;;;;;;15.73;4.18;;;3.90;90.70;;;;;;5012722;28;20183;-83
2021/05/06 06:01:00;;;;;;;8.90;3.55;;;4.00;90.80;;;;;;5029327;28;20021;-74
2021/05/06 06:03:25;;;;;;;5.93;3.10;;;4.10;90.80;;;;;;5030228;28;20033;-82
2021/05/06 06:05:53;;;;;;;12.65;3.65;;;4.10;90.80;;;;;;5029179;28;20026;-82
2021/05/06 06:08:23;;;;;;;8.63;3.13;;;4.20;90.70;;;;;;5028904;28;20419;-83
2021/05/06 06:10:49;;;;;;;6.05;2.50;;;4.20;90.70;;;;;;5028672;28;20049;-83
2021/05/06 06:13:15;;;;;;;8.30;2.95;;;4.30;90.80;;;;;;5045454;28;20574;-83
2021/05/06 06:19:02;;;;;;;10.98;3.97;;;4.50;90.80;;;;;;5030719;28;20030;-83
2021/05/06 06:21:12;;;;;;;7.85;2.70;;;4.60;90.80;;;;;;5025213;28;20524;-82
2021/05/06 06:23:37;;;;;;;11.73;3.25;;;4.80;91.10;;;;;;5028669;28;20029;-83
2021/05/06 06:26:03;;;;;;;6.97;2.88;;;5.30;92.00;;;;;;5028669;28;20055;-82
2021/05/06 06:28:37;;;;;;;8.68;3.22;;;6.40;92.80;;;;;;5028414;28;20037;-82
2021/05/06 06:31:03;;;;;;;5.85;2.83;;;7.90;90.50;;;;;;5013303;28;20041;-82
2021/05/06 06:33:29;;;;;;;7.32;2.42;;;8.40;84.50;;;;;;5027651;28;20060;-82
2021/05/06 06:35:54;;;;;;;14.35;3.67;;;8.10;81.40;;;;;;5028537;28;20025;-81
2021/05/06 06:38:20;;;;;;;6.30;2.70;;;7.70;81.40;;;;;;5028648;28;20036;-82
2021/05/06 06:40:46;;;;;;;7.75;2.38;;;7.30;81.80;;;;;;5028550;28;20067;-82
2021/05/06 06:43:12;;;;;;;8.35;2.30;;;7.00;82.70;;;;;;5028580;28;20100;-82
2021/05/06 06:45:38;;;;;;;6.75;2.50;;;6.70;83.30;;;;;;5028455;28;20060;-82
2021/05/06 06:48:04;;;;;;;8.15;2.72;;;6.60;83.90;;;;;;5045139;28;20030;-81
2021/05/06 06:50:29;;;;;;;6.43;2.67;;;6.40;84.30;;;;;;5012396;28;20095;-82
2021/05/06 06:52:55;;;;;;;7.93;3.00;;;6.30;84.90;;;;;;5011857;28;20477;-82
2021/05/06 06:55:21;;;;;;;8.50;2.60;;;6.20;85.40;;;;;;5028841;28;20045;-82
2021/05/06 06:57:46;;;;;;;6.85;2.58;;;6.20;85.90;;;;;;5028411;28;20034;-82
2021/05/06 07:00:12;;;;;;;9.23;2.35;;;6.10;86.30;;;;;;5028523;28;20128;-81
2021/05/06 07:02:38;;;;;;;7.20;2.13;;;6.20;86.80;;;;;;5011440;28;20133;-82
2021/05/06 07:05:04;;;;;;;7.72;2.30;;;6.20;87.10;;;;;;5028739;28;20061;-82
2021/05/06 07:07:30;;;;;;;11.73;2.30;;;6.20;87.40;;;;;;5011469;28;20445;-82
2021/05/06 07:09:56;;;;;;;5.50;1.95;;;6.20;87.50;;;;;;5028095;28;20067;-80
2021/05/06 07:12:22;;;;;;;6.95;1.77;;;6.30;89.20;;;;;;5028257;28;20036;-82
2021/05/06 07:14:47;;;;;;;5.85;1.70;;;7.40;92.20;;;;;;5029441;28;20078;-83
2021/05/06 07:17:13;;;;;;;14.20;2.40;;;9.50;92.20;;;;;;5011938;28;20033;-79
2021/05/06 07:19:39;;;;;;;5.00;1.60;;;11.60;90.30;;;;;;5028482;28;20476;-82
2021/05/06 07:22:05;;;;;;;7.97;1.67;;;13.50;85.10;;;;;;5029885;28;20071;-82
2021/05/06 07:24:32;;;;;;;6.05;1.40;;;14.80;78.70;;;;;;5028585;28;20052;-83
2021/05/06 07:26:59;;;;;;;4.70;1.60;;;15.20;73.10;;;;;;5012106;28;20416;-82
2021/05/06 07:29:26;;;;;;;10.50;2.28;;;14.90;69.90;;;;;;5011348;28;20081;-82
2021/05/06 07:31:52;;;;;;;4.95;1.52;;;14.40;69.70;;;;;;5028476;28;20032;-83
2021/05/06 07:34:17;;;;;;;7.43;1.58;;;14.80;71.90;;;;;;5028332;28;20072;-83
2021/05/06 07:36:43;;;;;;;4.50;1.52;;;16.10;71.20;;;;;;5011330;28;20045;-84
2021/05/06 07:39:09;;;;;;;4.53;1.77;;;17.60;68.80;;;;;;5027438;28;20464;-85
2021/05/06 07:41:35;;;;;;;9.57;1.50;;;19.00;65.90;;;;;;5027580;28;20116;-84
2021/05/06 07:44:01;;;;;;;5.88;1.67;;;20.10;63.00;;;;;;5028336;28;20093;-83
2021/05/06 07:46:27;;;;;;;11.55;1.98;;;21.10;60.30;;;;;;5027027;28;20031;-83
2021/05/06 07:48:54;;;;;;;8.70;1.73;;;21.90;58.20;;;;;;5028705;28;20029;-84
2021/05/06 07:51:20;;;;;;;7.10;1.83;;;22.60;56.10;;;;;;5029342;28;20441;-84
2021/05/06 07:53:49;;;;;;;5.05;2.00;;;23.20;54.40;;;;;;5011765;28;20033;-84
2021/05/06 07:56:16;;;;;;;10.27;2.67;;;23.70;52.50;;;;;;5028183;28;20079;-84
2021/05/06 07:58:42;;;;;;;6.30;1.45;;;24.10;51.10;;;;;;5027484;28;20392;-84
2021/05/06 08:01:09;;;;;;;8.93;2.17;;;24.40;49.70;;;;;;5027246;28;20108;-84
2021/05/06 08:03:36;;;;;;;14.20;2.15;;;24.50;48.70;;;;;;5026548;28;20040;-85
2021/05/06 08:06:02;;;;;;;6.10;1.33;;;24.60;48.00;;;;;;5027253;28;20033;-85
2021/05/06 08:08:28;;;;;;;4.05;1.40;;;24.60;47.80;;;;;;5030113;28;20077;-84
2021/05/06 08:10:56;;;;;;;4.13;1.45;;;24.70;47.10;;;;;;5011595;28;20120;-84
2021/05/06 08:13:23;;;;;;;9.98;1.23;;;24.80;46.60;;;;;;5026642;28;20356;-84
2021/05/06 08:15:50;;;;;;;6.28;1.38;;;25.10;45.70;;;;;;5011537;28;20096;-84
2021/05/06 08:18:16;;;;;;;6.13;1.75;;;25.00;45.30;;;;;;5043983;28;20045;-84
2021/05/06 08:20:42;;;;;;;5.45;1.63;;;25.10;44.90;;;;;;5029303;28;20396;-85
2021/05/06 08:23:10;;;;;;;14.63;2.25;;;25.10;44.80;;;;;;5027759;28;20040;-84
2021/05/06 08:25:36;;;;;;;12.20;2.10;;;24.90;44.60;;;;;;5030687;28;20021;-83
2021/05/06 08:28:02;;;;;;;3.70;1.13;;;25.10;44.40;;;;;;5029757;28;20107;-83
2021/05/06 08:30:28;;;;;;;9.68;1.70;;;25.40;44.10;;;;;;5028506;28;20472;-84
2021/05/06 08:32:55;;;;;;;7.15;1.77;;;25.60;43.80;;;;;;5029520;28;20029;-83
2021/05/06 08:35:20;;;;;;;5.80;1.52;;;25.60;43.40;;;;;;5028514;28;20080;-83
2021/05/06 08:37:46;;;;;;;26.88;4.22;;;25.60;43.20;;;;;;5011527;28;20502;-84
2021/05/06 08:40:12;;;;;;;13.77;3.20;;;25.80;43.10;;;;;;5010382;28;20026;-84
2021/05/06 08:42:40;;;;;;;4.63;1.35;;;26.30;43.00;;;;;;5028414;28;20368;-83
2021/05/06 08:45:07;;;;;;;5.25;1.80;;;26.70;42.30;;;;;;5027944;28;20030;-85
2021/05/06 08:47:33;;;;;;;9.45;2.45;;;27.00;41.80;;;;;;5026456;28;20060;-83
2021/05/06 08:50:00;;;;;;;4.60;1.70;;;27.00;41.60;;;;;;5027970;28;20014;-84
2021/05/06 08:52:27;;;;;;;7.63;1.65;;;27.30;41.30;;;;;;5027404;28;20124;-83
2021/05/06 08:54:55;;;;;;;8.65;1.65;;;27.90;40.60;;;;;;5026838;28;20033;-84
2021/05/06 08:57:22;;;;;;;7.65;1.58;;;28.00;39.60;;;;;;5031527;28;20175;-84
2021/05/06 08:59:49;;;;;;;9.45;1.55;;;27.60;39.60;;;;;;5033330;28;20033;-85
2021/05/06 09:02:15;;;;;;;5.20;1.70;;;27.30;39.30;;;;;;5014845;28;20033;-85
2021/05/06 09:04:42;;;;;;;8.18;1.55;;;27.10;39.40;;;;;;5033614;28;20029;-84
2021/05/06 09:07:11;;;;;;;6.80;1.60;;;27.30;39.70;;;;;;5030849;28;20561;-84
2021/05/06 09:09:41;;;;;;;;;;;27.60;39.80;;;;;;5031741;28;20033;-84
2021/05/06 09:12:07;;;;;;;6.20;1.67;;;28.10;40.80;;;;;;5030106;28;19910;-84
2021/05/06 09:14:45;;;;;;;6.72;1.55;;;28.40;39.60;;;;;;5014678;28;20025;-82
2021/05/06 09:17:33;;;;;;;7.10;1.70;;;28.60;38.60;;;;;;5033551;28;20056;-83
2021/05/06 09:20:40;;;;;;;9.45;1.63;;;28.60;38.30;;;;;;5032325;28;20018;-84
2021/05/06 09:23:06;;;;;;;6.55;1.65;;;28.70;38.00;;;;;;5027539;28;20623;-84
2021/05/06 09:25:37;;;;;;;3.70;1.17;;;28.40;37.60;;;;;;5033801;28;20061;-83
2021/05/06 09:28:22;;;;;;;5.22;1.42;;;27.90;37.30;;;;;;5015127;28;20124;-86
2021/05/06 09:31:04;;;;;;;6.32;1.50;;;27.90;37.70;;;;;;5030498;28;20040;-83
2021/05/06 09:33:33;;;;;;;5.53;1.13;;;27.90;37.10;;;;;;5031944;28;20026;-84
2021/05/06 09:36:08;;;;;;;7.03;1.50;;;28.30;36.90;;;;;;5032015;28;20132;-85
2021/05/06 09:38:46;;;;;;;10.20;1.98;;;28.30;36.20;;;;;;5032145;28;20026;-83
2021/05/06 09:41:14;;;;;;;9.77;2.00;;;28.30;36.50;;;;;;5032714;28;20029;-83
2021/05/06 09:43:42;;;;;;;4.85;1.30;;;28.70;36.70;;;;;;5014165;28;20029;-84
2021/05/06 09:46:32;;;;;;;7.75;1.98;;;28.40;35.50;;;;;;5030230;28;20025;-84
2021/05/06 09:49:04;;;;;;;4.75;1.20;;;28.00;35.90;;;;;;5029064;28;20487;-85
2021/05/06 09:51:37;;;;;;;4.22;1.40;;;28.20;35.70;;;;;;5030584;28;20029;-84
2021/05/06 09:54:05;;;;;;;9.27;1.45;;;28.40;35.70;;;;;;5028565;28;20170;-85
2021/05/06 09:56:31;;;;;;;4.93;1.40;;;28.60;35.30;;;;;;5030001;28;20404;-85
2021/05/06 09:58:58;;;;;;;6.55;1.25;;;28.70;35.50;;;;;;5029023;28;20168;-84
2021/05/06 10:01:35;;;;;;;7.55;1.92;;;28.80;35.30;;;;;;5030308;28;20044;-85
2021/05/06 10:04:21;;;;;;;6.28;1.40;;;29.00;35.10;;;;;;5030683;28;20431;-85
2021/05/06 10:07:05;;;;;;;7.78;1.33;;;29.30;34.90;;;;;;5028887;28;20021;-85
2021/05/06 10:09:31;;;;;;;7.93;1.52;;;29.20;34.30;;;;;;5028722;28;20029;-86
2021/05/06 10:12:01;;;;;;;7.13;1.98;;;29.10;34.80;;;;;;5012091;28;20416;-84
2021/05/06 10:14:28;;;;;;;8.82;2.22;;;29.30;34.50;;;;;;5045124;28;20125;-84
2021/05/06 10:16:53;;;;;;;7.70;1.52;;;29.70;34.80;;;;;;5030504;28;20431;-83
2021/05/06 10:19:19;;;;;;;11.82;1.65;;;29.50;34.10;;;;;;5030162;28;20448;-83
2021/05/06 10:21:45;;;;;;;5.65;1.20;;;28.80;33.90;;;;;;5011721;28;20083;-82
2021/05/06 10:24:16;;;;;;;3.25;1.35;;;28.70;34.20;;;;;;5029386;28;20037;-85
2021/05/06 10:26:43;;;;;;;7.07;1.52;;;28.60;33.90;;;;;;5027972;28;20498;-83
2021/05/06 10:29:09;;;;;;;4.72;1.20;;;28.10;34.10;;;;;;5029732;28;20026;-84
2021/05/06 10:31:39;;;;;;;4.85;1.25;;;27.70;33.90;;;;;;5029643;28;20033;-84
2021/05/06 10:34:06;;;;;;;5.88;1.80;;;26.80;32.70;;;;;;5029370;28;20116;-84
2021/05/06 10:36:34;;;;;;;4.80;1.20;;;26.70;33.80;;;;;;5028175;28;20440;-83
2021/05/06 10:39:01;;;;;;;8.02;1.50;;;26.20;32.70;;;;;;5029634;28;20377;-84
2021/05/06 10:41:34;;;;;;;7.57;2.28;;;25.10;32.90;;;;;;5028136;28;20472;-84
2021/05/06 10:44:11;;;;;;;4.68;1.52;;;24.60;33.50;;;;;;5028199;28;20030;-84
2021/05/06 10:47:01;;;;;;;5.40;1.50;;;25.20;33.90;;;;;;5030796;28;20448;-84
2021/05/06 10:49:30;;;;;;;11.65;1.65;;;26.10;34.20;;;;;;5028267;28;20045;-84
2021/05/06 10:52:00;;;;;;;;;;;27.40;34.20;;;;;;5030151;28;20065;-83
2021/05/06 10:54:46;;;;;;;5.50;1.40;;;28.60;35.00;;;;;;5029227;28;20007;-86
2021/05/06 10:57:12;;;;;;;3.85;1.23;;;29.00;32.60;;;;;;5027552;28;20049;-84
2021/05/06 10:59:42;;;;;;;4.53;1.25;;;28.70;32.70;;;;;;5028982;28;20477;-84
2021/05/06 11:02:09;;;;;;;4.18;0.88;;;29.00;32.40;;;;;;5012337;28;20026;-81
2021/05/06 11:04:42;;;;;;;4.68;1.95;;;29.30;32.30;;;;;;5027528;28;20029;-85
2021/05/06 11:07:13;;;;;;;5.50;2.08;;;29.40;31.50;;;;;;5044566;28;20366;-85
2021/05/06 11:09:49;;;;;;;4.47;1.40;;;29.10;31.40;;;;;;5029050;28;20029;-83
2021/05/06 11:12:19;;;;;;;4.03;1.83;;;28.50;30.90;;;;;;5029051;28;20018;-85
2021/05/06 11:15:03;;;;;;;6.47;1.33;;;28.30;31.50;;;;;;5028721;28;20221;-83
2021/05/06 11:17:35;;;;;;;2.63;1.15;;;28.50;31.70;;;;;;5029812;28;20070;-81
2021/05/06 11:20:10;;;;;;;7.03;1.63;;;29.20;31.80;;;;;;5028120;28;20388;-84
2021/05/06 11:22:53;;;;;;;3.72;1.10;;;29.50;31.70;;;;;;5028453;28;20029;-84
2021/05/06 11:25:29;;;;;;;6.07;1.58;;;30.00;31.50;;;;;;5028215;28;20121;-82
2021/05/06 11:28:04;;;;;;;7.22;2.85;;;30.40;31.40;;;;;;5027181;28;20033;-85
2021/05/06 11:30:49;;;;;;;6.10;2.05;;;30.20;30.70;;;;;;5027108;28;20033;-83
2021/05/06 11:33:27;;;;;;;9.02;1.83;;;28.90;30.10;;;;;;5026963;28;20041;-84
2021/05/06 11:35:57;;;;;;;5.47;1.80;;;27.50;30.70;;;;;;5027881;28;20447;-84
2021/05/06 11:41:32;;;;;;;4.57;1.23;;;28.40;32.20;;;;;;5029762;28;20022;-84
2021/05/06 11:44:00;;;;;;;3.92;1.38;;;29.30;31.70;;;;;;5029023;28;20052;-82
2021/05/06 11:46:27;;;;;;;5.30;1.50;;;29.60;31.90;;;;;;5028047;28;20060;-86
2021/05/06 11:48:58;;;;;;;4.50;1.30;;;29.20;31.00;;;;;;5028889;28;20563;-84
2021/05/06 11:51:32;;;;;;;6.68;1.25;;;27.70;30.00;;;;;;5029122;28;20030;-79
2021/05/06 11:54:19;;;;;;;4.45;1.25;;;26.10;30.80;;;;;;5027869;28;20080;-84
2021/05/06 11:57:01;;;;;;;4.28;1.20;;;25.50;31.70;;;;;;5028102;28;20416;-83
2021/05/06 11:59:31;;;;;;;8.45;1.58;;;25.80;32.10;;;;;;5028180;28;20066;-85
2021/05/06 12:02:05;;;;;;;4.87;1.20;;;26.40;32.10;;;;;;5028360;28;20032;-82
2021/05/06 12:04:36;;;;;;;3.78;1.30;;;26.10;31.70;;;;;;5027838;28;20025;-85
2021/05/06 12:07:16;;;;;;;3.70;1.33;;;25.90;32.10;;;;;;5028989;28;20033;-83
2021/05/06 12:09:42;;;;;;;7.18;1.38;;;26.20;32.10;;;;;;5027014;28;20026;-84
2021/05/06 12:12:09;;;;;;;6.32;1.20;;;26.70;32.30;;;;;;5011176;28;20038;-86
2021/05/06 12:14:38;;;;;;;7.93;1.40;;;27.30;32.10;;;;;;5027318;28;20421;-83
2021/05/06 12:17:18;;;;;;;4.55;1.38;;;27.50;31.40;;;;;;5026179;28;20468;-84
2021/05/06 12:19:48;;;;;;;5.10;1.40;;;26.50;30.40;;;;;;5027362;28;20025;-85
2021/05/06 12:22:16;;;;;;;4.32;1.20;;;25.20;31.10;;;;;;5009868;28;20029;-83
2021/05/06 12:24:48;;;;;;;8.27;1.42;;;24.90;31.90;;;;;;5025842;28;20053;-84
2021/05/06 12:27:22;;;;;;;2.55;0.90;;;25.20;32.30;;;;;;5027164;28;20306;-85
2021/05/06 12:29:55;;;;;;;3.38;1.40;;;26.00;32.10;;;;;;5025992;28;20029;-86
2021/05/06 12:32:28;;;;;;;5.00;1.98;;;26.10;31.60;;;;;;5025535;28;20052;-84
2021/05/06 12:34:55;;;;;;;4.28;1.60;;;25.60;31.30;;;;;;5010088;28;20029;-85
2021/05/06 12:37:25;;;;;;;10.48;1.42;;;25.00;31.80;;;;;;5026523;28;20044;-82
2021/05/06 12:39:52;;;;;;;4.78;1.10;;;25.10;31.90;;;;;;5009397;28;20078;-85
2021/05/06 12:42:35;;;;;;;5.63;1.50;;;25.40;32.20;;;;;;5009116;28;20030;-85
2021/05/06 12:45:04;;;;;;;7.97;1.50;;;26.00;32.10;;;;;;5028609;28;20018;-84
2021/05/06 12:47:33;;;;;;;7.07;1.35;;;26.60;31.50;;;;;;5026207;28;20029;-84
2021/05/06 12:50:30;;;;;;;3.53;1.00;;;26.20;31.00;;;;;;5010458;28;20499;-86
2021/05/06 12:53:10;;;;;;;7.82;1.30;;;25.20;30.90;;;;;;5027077;28;20033;-82
2021/05/06 12:55:42;;;;;;;3.67;1.10;;;24.40;31.70;;;;;;5010081;28;20029;-82
2021/05/06 12:58:26;;;;;;;5.55;1.67;;;24.50;32.70;;;;;;5026789;28;20049;-84
2021/05/06 13:00:52;;;;;;;4.18;1.08;;;25.10;32.50;;;;;;5025895;28;20041;-86
2021/05/06 13:03:25;;;;;;;3.20;0.90;;;25.80;32.20;;;;;;5026343;28;20417;-84
2021/05/06 13:05:51;;;;;;;4.43;1.20;;;25.60;31.60;;;;;;5027793;28;20025;-82
2021/05/06 13:08:17;;;;;;;5.60;1.35;;;25.70;31.80;;;;;;5010106;28;20088;-84
2021/05/06 13:10:45;;;;;;;6.40;1.25;;;25.70;31.60;;;;;;5026044;28;20491;-85
2021/05/06 13:13:30;;;;;;;2.78;1.27;;;25.20;31.30;;;;;;5026392;28;20048;-83
2021/05/06 13:15:56;;;;;;;5.15;1.25;;;24.30;31.50;;;;;;5027637;28;20029;-85
2021/05/06 13:18:22;;;;;;;3.72;0.90;;;23.30;32.10;;;;;;5009806;28;20492;-82
2021/05/06 13:20:48;;;;;;;4.53;1.27;;;23.00;32.50;;;;;;5010254;28;20395;-82
2021/05/06 13:23:22;;;;;;;6.13;1.23;;;22.90;32.90;;;;;;5009922;28;20097;-73
2021/05/06 13:25:50;;;;;;;4.90;1.27;;;22.80;33.10;;;;;;5028264;28;20476;-83
2021/05/06 13:28:18;;;;;;;2.80;0.88;;;22.60;32.70;;;;;;5026954;28;20441;-84
2021/05/06 13:30:46;;;;;;;6.07;1.73;;;22.00;32.50;;;;;;5027443;28;20097;-82
2021/05/06 13:33:19;;;;;;;3.80;0.90;;;21.30;33.00;;;;;;5027395;28;20395;-83
2021/05/06 13:36:08;;;;;;;4.32;0.90;;;20.90;33.50;;;;;;5027631;28;20033;-84
2021/05/06 13:38:53;;;;;;;4.28;1.15;;;20.60;33.90;;;;;;5026223;28;20034;-84
2021/05/06 13:41:29;;;;;;;4.20;1.40;;;20.50;34.30;;;;;;5026867;28;20468;-81
2021/05/06 13:43:57;;;;;;;5.43;1.90;;;20.40;34.60;;;;;;5013296;28;20118;-84
2021/05/06 13:46:24;;;;;;;7.15;1.80;;;20.30;34.80;;;;;;5029688;28;20033;-83
2021/05/06 13:48:51;;;;;;;5.60;0.90;;;20.00;35.20;;;;;;5013065;28;20049;-84
2021/05/06 13:51:18;;;;;;;3.88;1.13;;;19.60;35.50;;;;;;5029458;28;20127;-84
2021/05/06 13:53:46;;;;;;;2.55;1.05;;;19.50;35.40;;;;;;5012577;28;20033;-84
2021/05/06 13:56:12;;;;;;;6.10;1.70;;;19.50;35.30;;;;;;5029494;28;20133;-83
2021/05/06 13:58:38;;;;;;;4.35;1.23;;;19.10;35.30;;;;;;5031271;28;20034;-85
2021/05/06 14:01:06;;;;;;;4.45;1.00;;;18.70;35.60;;;;;;5029198;28;20480;-84
2021/05/06 14:03:33;;;;;;;3.30;1.10;;;18.50;36.10;;;;;;5062480;28;20071;-85
2021/05/06 14:06:00;;;;;;;4.35;1.20;;;18.30;36.20;;;;;;5028604;28;20476;-83
2021/05/06 14:08:26;;;;;;;6.20;1.23;;;18.10;36.30;;;;;;5029013;28;20431;-84
2021/05/06 14:10:54;;;;;;;4.53;0.93;;;17.80;36.70;;;;;;5029444;28;20040;-85
2021/05/06 14:13:20;;;;;;;5.70;1.30;;;17.40;37.70;;;;;;5029054;28;20029;-84
2021/05/06 14:15:47;;;;;;;3.75;1.40;;;17.10;37.40;;;;;;5029674;28;20021;-84
2021/05/06 14:18:13;;;;;;;4.68;1.33;;;16.70;37.70;;;;;;5029456;28;20070;-84
2021/05/06 14:20:39;;;;;;;5.20;1.20;;;16.50;37.90;;;;;;5012181;28;20127;-84
2021/05/06 14:23:06;;;;;;;4.75;1.58;;;16.30;38.20;;;;;;5028839;28;20068;-84
2021/05/06 14:25:33;;;;;;;6.80;1.55;;;16.20;38.40;;;;;;5029429;28;20029;-86
2021/05/06 14:27:59;;;;;;;4.95;1.38;;;16.20;38.60;;;;;;5028733;28;20069;-84
2021/05/06 14:30:25;;;;;;;4.03;1.80;;;16.30;38.70;;;;;;5029218;28;20026;-82
2021/05/06 14:32:51;;;;;;;9.65;1.35;;;16.50;39.00;;;;;;5011726;28;20431;-83
2021/05/06 14:35:17;;;;;;;5.45;1.63;;;16.70;38.90;;;;;;5028895;28;20475;-83
2021/05/06 14:37:43;;;;;;;4.93;1.50;;;17.00;39.00;;;;;;5028509;28;20033;-84
2021/05/06 14:40:09;;;;;;;4.78;1.63;;;17.40;38.90;;;;;;5011919;28;20025;-85
2021/05/06 14:42:35;;;;;;;5.57;1.45;;;17.40;38.90;;;;;;5009658;28;20389;-85
2021/05/06 14:45:01;;;;;;;5.18;1.85;;;17.30;39.40;;;;;;5029586;28;20035;-84
2021/05/06 14:47:27;;;;;;;6.18;1.30;;;17.20;39.80;;;;;;5030933;28;20033;-85
2021/05/06 14:49:53;;;;;;;5.82;1.60;;;17.20;39.70;;;;;;5020070;28;20030;-84
2021/05/06 14:52:19;;;;;;;5.47;2.45;;;17.20;39.80;;;;;;5010188;28;20267;-85
2021/05/06 14:54:49;;;;;;;4.50;1.58;;;17.10;39.50;;;;;;4992451;28;20125;-84
2021/05/06 14:57:16;;;;;;;8.30;1.83;;;16.90;39.50;;;;;;5010966;28;20057;-83
2021/05/06 14:59:42;;;;;;;7.03;2.10;;;16.70;39.50;;;;;;5011665;28;20056;-84
2021/05/06 15:02:08;;;;;;;3.60;1.35;;;16.50;39.70;;;;;;5011372;28;20026;-84
2021/05/06 15:04:34;;;;;;;3.85;1.05;;;16.30;39.80;;;;;;5009824;28;20018;-83
2021/05/06 15:07:00;;;;;;;5.95;1.20;;;16.20;40.00;;;;;;4993514;28;20558;-84
2021/05/06 15:09:26;;;;;;;5.85;1.83;;;16.30;39.90;;;;;;5007870;28;20125;-83
2021/05/06 15:11:56;;;;;;;2.28;0.90;;;16.30;39.60;;;;;;5008529;28;20069;-84
2021/05/06 15:14:24;;;;;;;8.07;1.42;;;16.30;39.30;;;;;;5027857;28;20025;-84
2021/05/06 15:16:50;;;;;;;5.05;1.50;;;16.40;39.40;;;;;;5010988;28;20071;-84
2021/05/06 15:19:16;;;;;;;5.10;1.20;;;16.50;39.40;;;;;;5027913;28;20045;-84
2021/05/06 15:21:41;;;;;;;9.18;1.95;;;16.50;39.10;;;;;;5027720;28;20037;-78
2021/05/06 15:24:07;;;;;;;5.60;1.60;;;16.50;38.90;;;;;;5028912;28;20022;-82
2021/05/06 15:26:36;;;;;;;4.35;1.70;;;16.50;38.90;;;;;;5027544;28;20025;-82
2021/05/06 15:29:03;;;;;;;7.95;1.70;;;16.50;39.20;;;;;;5028017;28;20443;-81
2021/05/06 15:31:29;;;;;;;4.65;1.67;;;16.60;39.60;;;;;;5027332;28;20040;-82
2021/05/06 15:33:54;;;;;;;5.35;1.98;;;16.90;39.50;;;;;;5026220;28;20029;-81
2021/05/06 15:36:22;;;;;;;3.45;1.10;;;17.20;39.40;;;;;;5026346;28;20033;-82
2021/05/06 15:38:47;;;;;;;16.70;1.58;;;17.10;38.40;;;;;;5026281;28;20075;-81
2021/05/06 15:41:13;;;;;;;6.90;1.42;;;16.90;38.40;;;;;;5009734;28;20043;-82
2021/05/06 15:43:39;;;;;;;5.07;2.15;;;17.00;38.50;;;;;;5027306;28;20028;-81
2021/05/06 15:46:06;;;;;;;8.52;1.92;;;16.90;38.70;;;;;;5023652;28;20025;-82
2021/05/06 15:48:32;;;;;;;6.00;1.63;;;16.80;39.30;;;;;;5014264;28;20029;-80
2021/05/06 15:51:00;;;;;;;13.63;3.65;;;16.80;39.70;;;;;;5020436;28;20029;-82
2021/05/06 15:53:27;;;;;;;6.82;2.60;;;16.70;40.30;;;;;;5009267;28;20087;-83
2021/05/06 15:55:54;;;;;;;10.57;3.70;;;16.60;40.80;;;;;;5008418;28;20377;-82
2021/05/06 15:58:20;;;;;;;13.95;3.17;;;16.50;41.30;;;;;;5025033;28;20041;-82
2021/05/06 16:00:46;;;;;;;9.20;3.08;;;16.50;41.60;;;;;;5007939;28;20144;-82
2021/05/06 16:03:15;;;;;;;16.08;3.72;;;16.40;41.80;;;;;;5008078;28;20021;-82
2021/05/06 16:05:44;;;;;;;9.07;2.97;;;16.40;41.90;;;;;;5008786;28;20083;-81
2021/05/06 16:08:10;;;;;;;;;;;16.30;41.80;;;;;;5025431;28;20030;-83
2021/05/06 16:10:36;;;;;;;6.95;2.40;;;16.20;41.70;;;;;;5025757;28;19906;-83
2021/05/06 16:13:01;;;;;;;13.15;3.60;;;16.00;41.80;;;;;;5009546;28;20116;-81
2021/05/06 16:15:28;;;;;;;7.80;2.83;;;15.80;42.20;;;;;;5009755;28;20025;-84
2021/05/06 16:17:54;;;;;;;9.88;2.83;;;15.60;42.50;;;;;;5025517;28;20033;-82
2021/05/06 16:20:27;;;;;;;8.20;3.08;;;15.50;42.70;;;;;;5025938;28;20104;-83
2021/05/06 16:22:52;;;;;;;13.52;4.68;;;15.40;42.70;;;;;;5025590;28;20022;-83
2021/05/06 16:25:18;;;;;;;7.85;1.95;;;15.30;43.10;;;;;;5009293;28;20469;-81
2021/05/06 16:27:45;;;;;;;10.82;3.53;;;15.20;43.20;;;;;;5025406;28;20029;-81
2021/05/06 16:30:12;;;;;;;4.68;2.35;;;15.30;43.30;;;;;;5025285;28;20381;-81
2021/05/06 16:32:40;;;;;;;8.40;2.92;;;15.40;43.20;;;;;;5008961;28;20040;-82
2021/05/06 16:35:08;;;;;;;15.00;3.00;;;15.60;43.30;;;;;;5025023;28;20483;-84
2021/05/06 16:37:48;;;;;;;5.72;1.63;;;15.90;43.10;;;;;;5026748;28;20052;-76
2021/05/06 16:43:33;;;;;;;6.93;2.90;;;16.70;42.60;;;;;;5023775;28;20510;-85